Nevzat Kalkavan — TCMO2 — position and weather

sailwx.info

Track history (hours):
 
Tides and Currents Weather Stations Pressure Air Temp Water Temp Dewpoint Dewpoint Depression Visibility Wind Speed Wind Dir Waves Ship Positions

Nevzat Kalkavan

Last reported at 2018-Jun-20 02:00 UTC. Time now 2018-Jun-20 05:34 UTC.
Position N 33°36' W 053°48'.

Length 183 m; draft 10.3 m.

Type: Ship (hazmat cat A). MMSI: 271042759.

Wind from 270 at 13 knots

Barometer 1017.2 mb
Air temperature 23.0 ° C
Visibility: greater than 10.8 NM
Dewpoint 18.3 ° C

Date/timePositionNaut miles runAvg speedWind from/ knotsBaromVisibWave heightAir tempDewpointWater temp
2018-Jun-20 02:00N 33°36' W 053°48'17114.3 270 / 131017.210.8 23.018.3
2018-Jun-19 14:00N 33°18' W 057°12'35314.7 320 / 81018.027.0 25.018.8
2018-Jun-18 14:00N 32°48' W 064°12'6115.2 080 / 151020.327.0 25.018.8
2018-Jun-18 10:00N 32°42' W 065°24'13018.6 080 / 111019.310.8 23.018.329.5
2018-Jun-18 03:00N 32°12' W 067°54'15613.0 070 / 111019.810.8 19.013.8
2018-Jun-17 15:00N 31°42' W 070°54'49814.9 060 / 101019.810.8 26.019.9
2018-Jun-16 05:34N 31°57' W 080°40'115.7
2018-Jun-16 05:29N 31°57' W 080°41'713.1
2018-Jun-16 04:59N 32°01' W 080°48'713.4
2018-Jun-16 04:29N 32°03' W 080°56'511.1
2018-Jun-16 04:01N 32°06' W 081°00'4 8.0
2018-Jun-16 03:30N 32°05' W 081°05'3 6.6
2018-Jun-16 03:00N 32°07' W 081°08'1 0.1
2018-Jun-15 19:11N 32°08' W 081°09'0 0.0
2018-Jun-15 13:41N 32°08' W 081°09'0 0.0
2018-Jun-15 13:11N 32°08' W 081°09'0 0.0
2018-Jun-15 10:11N 32°08' W 081°09'0 0.4
2018-Jun-15 10:00N 32°08' W 081°08'3 5.1
2018-Jun-15 09:29N 32°06' W 081°07'3 5.9
2018-Jun-15 08:59N 32°05' W 081°03'4 7.9
2018-Jun-15 08:30N 32°05' W 080°59'5 9.6
2018-Jun-15 08:00N 32°02' W 080°54'610.9
2018-Jun-15 07:30N 32°00' W 080°48'714.1
2018-Jun-15 07:00N 31°57' W 080°40'611.6
2018-Jun-15 06:30N 31°57' W 080°34'713.5
2018-Jun-15 05:59N 31°58' W 080°26'713.7
2018-Jun-15 05:30N 32°00' W 080°18'813.5
2018-Jun-15 04:57N 32°03' W 080°10'2613.6
2018-Jun-15 03:00N 32°14' W 079°42'1613.8
2018-Jun-15 01:49N 32°21' W 079°24'31110.8
2018-Jun-13 20:54N 36°53' W 076°20'1 2.2
2018-Jun-13 20:24N 36°51' W 076°20'0 0.0
2018-Jun-13 19:54N 36°51' W 076°20'0 0.0
2018-Jun-13 19:09N 36°51' W 076°20'0 0.0
2018-Jun-13 18:57N 36°51' W 076°20'0 0.0
2018-Jun-13 18:24N 36°51' W 076°20'0 0.0
2018-Jun-13 18:00N 36°51' W 076°20'0 0.0
2018-Jun-13 16:00N 36°51' W 076°20'0 0.0
2018-Jun-13 14:54N 36°51' W 076°20'0 0.0
2018-Jun-13 13:33N 36°51' W 076°20'0 0.0
2018-Jun-13 13:03N 36°51' W 076°20'0 0.0
2018-Jun-13 12:06N 36°51' W 076°20'0 0.0
2018-Jun-13 11:57N 36°51' W 076°20'0 0.0
2018-Jun-13 11:21N 36°51' W 076°20'0 0.0
2018-Jun-13 10:30N 36°51' W 076°20'0 0.0
2018-Jun-13 09:21N 36°51' W 076°20'0 0.0
2018-Jun-13 09:00N 36°51' W 076°20'0 0.0
2018-Jun-13 08:30N 36°51' W 076°20'0 0.0
2018-Jun-13 08:00N 36°51' W 076°20'0 0.0
2018-Jun-13 07:30N 36°51' W 076°20'0 0.0
2018-Jun-13 07:00N 36°51' W 076°20'0 0.0
2018-Jun-13 06:30N 36°51' W 076°20'0 0.0
2018-Jun-13 06:00N 36°51' W 076°20'0 0.0
2018-Jun-13 05:30N 36°51' W 076°20'0 0.0
2018-Jun-13 05:00N 36°51' W 076°20'0 0.0
2018-Jun-13 04:30N 36°51' W 076°20'0 0.0
2018-Jun-13 04:00N 36°51' W 076°20'1 1.3
2018-Jun-13 03:30N 36°52' W 076°20'4 7.5
2018-Jun-13 02:59N 36°56' W 076°20'9811.8
2018-Jun-12 18:41N 37°43' W 074°32'315.2
2018-Jun-12 18:28N 37°46' W 074°29'715.2
2018-Jun-12 17:58N 37°52' W 074°24'715.3
2018-Jun-12 17:30N 37°58' W 074°18'4014.8
2018-Jun-12 14:46N 38°37' W 074°05'915.3
2018-Jun-12 14:12N 38°45' W 074°04'315.4
2018-Jun-12 14:00N 38°48' W 074°03'815.5
2018-Jun-12 13:29N 38°56' W 074°01'715.4
2018-Jun-12 13:01N 39°04' W 073°59'815.3
2018-Jun-12 12:30N 39°11' W 073°58'815.4
2018-Jun-12 12:01N 39°19' W 073°56'815.3
2018-Jun-12 11:30N 39°26' W 073°55'815.2
2018-Jun-12 11:00N 39°34' W 073°54'814.9
2018-Jun-12 10:28N 39°42' W 073°53'714.8
2018-Jun-12 10:01N 39°49' W 073°52'815.0
2018-Jun-12 09:30N 39°56' W 073°51'815.0
2018-Jun-12 08:59N 40°04' W 073°51'714.9
2018-Jun-12 08:30N 40°11' W 073°50'714.9
2018-Jun-12 08:00N 40°18' W 073°49'913.2
2018-Jun-12 07:18N 40°28' W 073°51'413.2
2018-Jun-12 07:00N 40°30' W 073°56'713.6
2018-Jun-12 06:29N 40°35' W 074°02'510.2
2018-Jun-12 06:00N 40°39' W 074°05'3 6.4
2018-Jun-12 05:30N 40°39' W 074°09'1 0.0
2018-Jun-11 10:57N 40°40' W 074°09'0 0.0
2018-Jun-11 10:27N 40°40' W 074°09'0 0.0
2018-Jun-11 10:00N 40°40' W 074°09'0 0.2
2018-Jun-11 09:19N 40°40' W 074°09'1 2.0
2018-Jun-11 09:00N 40°39' W 074°09'3 5.9
2018-Jun-11 08:30N 40°39' W 074°05'5 8.6
2018-Jun-11 07:57N 40°35' W 074°02'20 0.8
2018-Jun-10 05:56N 40°30' W 073°36'1112.0
2018-Jun-10 05:02N 40°21' W 073°30'214.6
2018-Jun-10 04:56N 40°19' W 073°29'714.7
2018-Jun-10 04:28N 40°14' W 073°23'814.9
2018-Jun-10 03:56N 40°09' W 073°15'1923.2
2018-Jun-10 03:08N 39°55' W 072°58'  
Track history (hours):
 
Tides and Currents Weather Stations Pressure Air Temp Water Temp Dewpoint Dewpoint Depression Visibility Wind Speed Wind Dir Waves Ship Positions

Nevzat Kalkavan

Last reported at 2018-Jun-20 02:00 UTC. Time now 2018-Jun-20 05:34 UTC.
Position N 33°36' W 053°48'.

Length 183 m; draft 10.3 m.

Type: Ship (hazmat cat A). MMSI: 271042759.

Wind from 270 at 13 knots

Barometer 1017.2 mb
Air temperature 23.0 ° C
Visibility: greater than 10.8 NM
Dewpoint 18.3 ° C

Date/timePositionNaut miles runAvg speedWind from/ knotsBaromVisibWave heightAir tempDewpointWater temp
2018-Jun-20 02:00N 33°36' W 053°48'17114.3 270 / 131017.210.8 23.018.3
2018-Jun-19 14:00N 33°18' W 057°12'35314.7 320 / 81018.027.0 25.018.8
2018-Jun-18 14:00N 32°48' W 064°12'6115.2 080 / 151020.327.0 25.018.8
2018-Jun-18 10:00N 32°42' W 065°24'13018.6 080 / 111019.310.8 23.018.329.5
2018-Jun-18 03:00N 32°12' W 067°54'15613.0 070 / 111019.810.8 19.013.8
2018-Jun-17 15:00N 31°42' W 070°54'49814.9 060 / 101019.810.8 26.019.9
2018-Jun-16 05:34N 31°57' W 080°40'115.7
2018-Jun-16 05:29N 31°57' W 080°41'713.1
2018-Jun-16 04:59N 32°01' W 080°48'713.4
2018-Jun-16 04:29N 32°03' W 080°56'511.1
2018-Jun-16 04:01N 32°06' W 081°00'4 8.0
2018-Jun-16 03:30N 32°05' W 081°05'3 6.6
2018-Jun-16 03:00N 32°07' W 081°08'1 0.1
2018-Jun-15 19:11N 32°08' W 081°09'0 0.0
2018-Jun-15 13:41N 32°08' W 081°09'0 0.0
2018-Jun-15 13:11N 32°08' W 081°09'0 0.0
2018-Jun-15 10:11N 32°08' W 081°09'0 0.4
2018-Jun-15 10:00N 32°08' W 081°08'3 5.1
2018-Jun-15 09:29N 32°06' W 081°07'3 5.9
2018-Jun-15 08:59N 32°05' W 081°03'4 7.9
2018-Jun-15 08:30N 32°05' W 080°59'5 9.6
2018-Jun-15 08:00N 32°02' W 080°54'610.9
2018-Jun-15 07:30N 32°00' W 080°48'714.1
2018-Jun-15 07:00N 31°57' W 080°40'611.6
2018-Jun-15 06:30N 31°57' W 080°34'713.5
2018-Jun-15 05:59N 31°58' W 080°26'713.7
2018-Jun-15 05:30N 32°00' W 080°18'813.5
2018-Jun-15 04:57N 32°03' W 080°10'2613.6
2018-Jun-15 03:00N 32°14' W 079°42'1613.8
2018-Jun-15 01:49N 32°21' W 079°24'31110.8
2018-Jun-13 20:54N 36°53' W 076°20'1 2.2
2018-Jun-13 20:24N 36°51' W 076°20'0 0.0
2018-Jun-13 19:54N 36°51' W 076°20'0 0.0
2018-Jun-13 19:09N 36°51' W 076°20'0 0.0
2018-Jun-13 18:57N 36°51' W 076°20'0 0.0
2018-Jun-13 18:24N 36°51' W 076°20'0 0.0
2018-Jun-13 18:00N 36°51' W 076°20'0 0.0
2018-Jun-13 16:00N 36°51' W 076°20'0 0.0
2018-Jun-13 14:54N 36°51' W 076°20'0 0.0
2018-Jun-13 13:33N 36°51' W 076°20'0 0.0
2018-Jun-13 13:03N 36°51' W 076°20'0 0.0
2018-Jun-13 12:06N 36°51' W 076°20'0 0.0
2018-Jun-13 11:57N 36°51' W 076°20'0 0.0
2018-Jun-13 11:21N 36°51' W 076°20'0 0.0
2018-Jun-13 10:30N 36°51' W 076°20'0 0.0
2018-Jun-13 09:21N 36°51' W 076°20'0 0.0
2018-Jun-13 09:00N 36°51' W 076°20'0 0.0
2018-Jun-13 08:30N 36°51' W 076°20'0 0.0
2018-Jun-13 08:00N 36°51' W 076°20'0 0.0
2018-Jun-13 07:30N 36°51' W 076°20'0 0.0
2018-Jun-13 07:00N 36°51' W 076°20'0 0.0
2018-Jun-13 06:30N 36°51' W 076°20'0 0.0
2018-Jun-13 06:00N 36°51' W 076°20'0 0.0
2018-Jun-13 05:30N 36°51' W 076°20'0 0.0
2018-Jun-13 05:00N 36°51' W 076°20'0 0.0
2018-Jun-13 04:30N 36°51' W 076°20'0 0.0
2018-Jun-13 04:00N 36°51' W 076°20'1 1.3
2018-Jun-13 03:30N 36°52' W 076°20'4 7.5
2018-Jun-13 02:59N 36°56' W 076°20'9811.8
2018-Jun-12 18:41N 37°43' W 074°32'315.2
2018-Jun-12 18:28N 37°46' W 074°29'715.2
2018-Jun-12 17:58N 37°52' W 074°24'715.3
2018-Jun-12 17:30N 37°58' W 074°18'4014.8
2018-Jun-12 14:46N 38°37' W 074°05'915.3
2018-Jun-12 14:12N 38°45' W 074°04'315.4
2018-Jun-12 14:00N 38°48' W 074°03'815.5
2018-Jun-12 13:29N 38°56' W 074°01'715.4
2018-Jun-12 13:01N 39°04' W 073°59'815.3
2018-Jun-12 12:30N 39°11' W 073°58'815.4
2018-Jun-12 12:01N 39°19' W 073°56'815.3
2018-Jun-12 11:30N 39°26' W 073°55'815.2
2018-Jun-12 11:00N 39°34' W 073°54'814.9
2018-Jun-12 10:28N 39°42' W 073°53'714.8
2018-Jun-12 10:01N 39°49' W 073°52'815.0
2018-Jun-12 09:30N 39°56' W 073°51'815.0
2018-Jun-12 08:59N 40°04' W 073°51'714.9
2018-Jun-12 08:30N 40°11' W 073°50'714.9
2018-Jun-12 08:00N 40°18' W 073°49'913.2
2018-Jun-12 07:18N 40°28' W 073°51'413.2
2018-Jun-12 07:00N 40°30' W 073°56'713.6
2018-Jun-12 06:29N 40°35' W 074°02'510.2
2018-Jun-12 06:00N 40°39' W 074°05'3 6.4
2018-Jun-12 05:30N 40°39' W 074°09'1 0.0
2018-Jun-11 10:57N 40°40' W 074°09'0 0.0
2018-Jun-11 10:27N 40°40' W 074°09'0 0.0
2018-Jun-11 10:00N 40°40' W 074°09'0 0.2
2018-Jun-11 09:19N 40°40' W 074°09'1 2.0
2018-Jun-11 09:00N 40°39' W 074°09'3 5.9
2018-Jun-11 08:30N 40°39' W 074°05'5 8.6
2018-Jun-11 07:57N 40°35' W 074°02'20 0.8
2018-Jun-10 05:56N 40°30' W 073°36'1112.0
2018-Jun-10 05:02N 40°21' W 073°30'214.6
2018-Jun-10 04:56N 40°19' W 073°29'714.7
2018-Jun-10 04:28N 40°14' W 073°23'814.9
2018-Jun-10 03:56N 40°09' W 073°15'1923.2
2018-Jun-10 03:08N 39°55' W 072°58'  

Dump ship's entire track history